Terminal Aerodrome Forecast
Issued by NWS Sterling, VA

Current Version | Previous Version | Graphics & Text | Print | Product List | Glossary On
Versions: 1 2 3 4 5 6 7 8 9 10 11 12 13 14 15 16 17 18 19 20 21 22 23 24 25 26
000
FTUS41 KLWX 171720
TAFDCA
TAF
KDCA 171720Z 1718/1818 07005KT P6SM BKN040
     FM180100 VRB04KT P6SM SCT040
     FM181000 VRB04KT 6SM BR BKN008
     FM181300 03008KT P6SM BKN025
     FM181600 03008KT P6SM BKN040=

USA.gov is the U.S. government's official web portal to all federal, state and local government web resources and services.